createdAt,value
2019-06-15T00:01:28.203Z,40.47
2019-06-15T00:03:58.103Z,40.46
2019-06-15T00:06:27.690Z,40.43
2019-06-15T00:08:57.237Z,40.42
2019-06-15T00:11:27.124Z,40.41
2019-06-15T00:13:56.671Z,40.34
2019-06-15T00:16:26.241Z,40.24
2019-06-15T00:18:55.860Z,40.40
2019-06-15T00:21:25.431Z,40.37
2019-06-15T00:23:55.072Z,40.44
2019-06-15T00:26:24.639Z,40.46
2019-06-15T00:28:54.183Z,40.49
2019-06-15T00:31:24.094Z,40.50
2019-06-15T00:33:53.666Z,40.56
2019-06-15T00:36:23.521Z,40.63
2019-06-15T00:38:53.120Z,40.68
2019-06-15T00:41:22.671Z,40.73
2019-06-15T00:43:52.235Z,40.80
2019-06-15T00:46:21.776Z,40.83
2019-06-15T00:48:51.333Z,40.87
2019-06-15T00:51:21.112Z,40.82
2019-06-15T00:53:50.663Z,40.90
2019-06-15T00:56:20.240Z,40.96
2019-06-15T00:58:49.785Z,40.98
2019-06-15T01:01:19.386Z,40.95
2019-06-15T01:03:48.951Z,41.00
2019-06-15T01:06:18.491Z,41.08
2019-06-15T01:08:48.062Z,41.07
2019-06-15T01:11:17.611Z,41.15
2019-06-15T01:13:47.172Z,41.16
2019-06-15T01:16:17.382Z,41.19
2019-06-15T01:18:46.937Z,41.21
2019-06-15T01:21:16.520Z,41.25
2019-06-15T01:23:46.068Z,41.26
2019-06-15T01:26:15.625Z,41.29
2019-06-15T01:28:45.172Z,41.30
2019-06-15T01:31:14.955Z,41.31
2019-06-15T01:33:44.515Z,41.35
2019-06-15T01:36:14.055Z,41.37
2019-06-15T01:38:45.553Z,41.45
2019-06-15T01:41:15.109Z,41.50
2019-06-15T01:43:44.670Z,41.53
2019-06-15T01:46:14.309Z,41.55
2019-06-15T01:48:43.857Z,41.57
2019-06-15T01:51:13.508Z,41.61
2019-06-15T01:53:43.060Z,41.66
2019-06-15T01:56:12.998Z,41.68
2019-06-15T01:58:42.970Z,41.71
2019-06-15T02:01:12.524Z,41.73
2019-06-15T02:03:42.161Z,41.75
2019-06-15T02:06:11.732Z,41.89
2019-06-15T02:08:41.302Z,41.95
2019-06-15T02:11:10.882Z,41.96
2019-06-15T02:13:40.425Z,42.05
2019-06-15T02:16:09.919Z,42.08
2019-06-15T02:18:39.439Z,42.08
2019-06-15T02:21:09.022Z,42.15
2019-06-15T02:23:38.607Z,42.10
2019-06-15T02:26:08.106Z,42.16
2019-06-15T02:28:37.658Z,42.18
2019-06-15T02:31:25.465Z,42.26
2019-06-15T02:33:55.074Z,42.45
2019-06-15T02:36:24.665Z,42.44
2019-06-15T02:38:54.273Z,42.43
2019-06-15T02:41:23.834Z,42.46
2019-06-15T02:43:53.378Z,42.56
2019-06-15T02:46:26.345Z,42.64
2019-06-15T02:48:54.416Z,42.79
2019-06-15T02:51:24.062Z,42.84
2019-06-15T02:53:53.673Z,42.83
2019-06-15T02:56:23.566Z,42.82
2019-06-15T02:58:53.174Z,42.80
2019-06-15T03:01:23.175Z,42.86
2019-06-15T03:03:53.089Z,42.96
2019-06-15T03:06:22.999Z,42.99
2019-06-15T03:08:52.633Z,43.07
2019-06-15T03:11:22.176Z,43.07
2019-06-15T03:13:51.751Z,43.03
2019-06-15T03:16:21.649Z,43.07
2019-06-15T03:18:51.213Z,43.10
2019-06-15T03:21:20.776Z,43.06
2019-06-15T03:23:50.672Z,43.11
2019-06-15T03:26:20.733Z,43.06
2019-06-15T03:28:50.723Z,43.21
2019-06-15T03:31:20.633Z,43.19
2019-06-15T03:33:50.550Z,43.26
2019-06-15T03:36:20.510Z,43.18
2019-06-15T03:38:50.140Z,43.17
2019-06-15T03:41:19.804Z,43.20
2019-06-15T03:43:49.372Z,43.21
2019-06-15T03:46:19.003Z,43.32
2019-06-15T03:48:48.545Z,43.45
2019-06-15T03:51:18.160Z,43.36
2019-06-15T03:53:47.725Z,43.42
2019-06-15T03:56:21.718Z,43.50
2019-06-15T03:58:48.694Z,43.44
2019-06-15T04:01:27.940Z,43.41
2019-06-15T04:03:57.546Z,43.41
2019-06-15T04:06:27.090Z,43.42
2019-06-15T04:08:56.743Z,43.41
2019-06-15T04:11:26.318Z,43.47
2019-06-15T04:13:55.863Z,43.51
2019-06-15T04:16:25.759Z,43.58
2019-06-15T04:18:55.431Z,43.61
2019-06-15T04:21:24.976Z,43.73
2019-06-15T04:23:54.594Z,43.83
2019-06-15T04:26:35.614Z,43.78
2019-06-15T04:28:55.506Z,43.69
2019-06-15T04:31:25.052Z,43.70
2019-06-15T04:33:55.190Z,43.69
2019-06-15T04:36:24.764Z,43.67
2019-06-15T04:38:54.306Z,43.70
2019-06-15T04:41:24.081Z,43.73
2019-06-15T04:43:53.713Z,43.76
2019-06-15T04:46:23.277Z,43.75
2019-06-15T04:48:53.214Z,43.72
2019-06-15T04:51:22.786Z,43.77
2019-06-15T04:53:52.342Z,43.78
2019-06-15T04:56:21.911Z,43.81
2019-06-15T04:58:51.590Z,43.86
2019-06-15T05:01:21.162Z,43.85
2019-06-15T05:03:50.758Z,43.90
2019-06-15T05:06:20.688Z,43.90
2019-06-15T05:08:50.252Z,43.90
2019-06-15T05:11:20.103Z,43.96
2019-06-15T05:13:49.679Z,44.00
2019-06-15T05:16:19.341Z,44.03
2019-06-15T05:18:49.208Z,44.10
2019-06-15T05:21:18.778Z,44.11
2019-06-15T05:23:48.921Z,44.12
2019-06-15T05:26:18.820Z,44.09
2019-06-15T05:28:48.383Z,44.11
2019-06-15T05:31:36.354Z,44.15
2019-06-15T05:34:05.822Z,44.16
2019-06-15T05:36:35.380Z,44.19
2019-06-15T05:39:06.381Z,44.21
2019-06-15T05:41:36.061Z,44.25
2019-06-15T05:44:05.843Z,44.26
2019-06-15T05:46:35.414Z,44.29
2019-06-15T05:49:04.967Z,44.35
2019-06-15T05:51:34.535Z,44.33
2019-06-15T05:54:04.093Z,44.35
2019-06-15T05:56:33.674Z,44.41
2019-06-15T05:59:03.231Z,44.43
2019-06-15T06:01:32.764Z,44.46
2019-06-15T06:04:02.560Z,44.46
2019-06-15T06:06:32.106Z,44.51
2019-06-15T06:09:01.743Z,44.56
2019-06-15T06:11:31.312Z,44.56
2019-06-15T06:14:00.870Z,44.60
2019-06-15T06:16:30.430Z,44.61
2019-06-15T06:19:00.310Z,44.67
2019-06-15T06:21:29.981Z,44.66
2019-06-15T06:23:59.575Z,44.68
2019-06-15T06:26:29.108Z,44.75
2019-06-15T06:28:59.032Z,44.78
2019-06-15T06:31:28.591Z,44.83
2019-06-15T06:33:58.490Z,44.83
2019-06-15T06:36:28.068Z,44.89
2019-06-15T06:38:57.989Z,44.84
2019-06-15T06:41:27.616Z,44.87
2019-06-15T06:43:57.234Z,44.94
2019-06-15T06:46:26.890Z,44.97
2019-06-15T06:48:56.459Z,45.09
2019-06-15T06:51:26.053Z,45.24
2019-06-15T06:53:55.600Z,45.24
2019-06-15T06:56:25.302Z,45.13
2019-06-15T06:58:55.086Z,45.25
2019-06-15T07:01:24.712Z,45.22
2019-06-15T07:03:54.314Z,45.21
2019-06-15T07:06:23.929Z,45.30
2019-06-15T07:08:53.482Z,45.33
2019-06-15T07:11:23.398Z,45.39
2019-06-15T07:13:52.975Z,45.45
2019-06-15T07:16:22.550Z,45.46
2019-06-15T07:18:52.178Z,45.54
2019-06-15T07:21:21.744Z,45.55
2019-06-15T07:23:51.417Z,45.57
2019-06-15T07:26:21.120Z,45.57
2019-06-15T07:28:50.969Z,45.62
2019-06-15T07:31:20.522Z,45.66
2019-06-15T07:33:50.160Z,45.65
2019-06-15T07:36:19.749Z,45.67
2019-06-15T07:38:49.410Z,45.69
2019-06-15T07:41:18.982Z,45.71
2019-06-15T07:43:50.145Z,45.75
2019-06-15T07:46:19.722Z,45.83
2019-06-15T07:48:49.272Z,45.75
2019-06-15T07:51:18.895Z,46.01
2019-06-15T07:53:48.445Z,45.92
2019-06-15T07:56:18.016Z,45.93
2019-06-15T07:58:47.593Z,45.92
2019-06-15T08:01:17.234Z,46.13
2019-06-15T08:03:46.807Z,46.79
2019-06-15T08:06:16.402Z,47.38
2019-06-15T08:08:46.311Z,47.65
2019-06-15T08:11:15.896Z,47.68
2019-06-15T08:13:45.728Z,47.66
2019-06-15T08:16:15.581Z,47.64
2019-06-15T08:18:45.230Z,47.62
2019-06-15T08:21:15.113Z,47.64
2019-06-15T08:23:44.673Z,47.68
2019-06-15T08:26:14.355Z,47.72
2019-06-15T08:28:44.005Z,47.81
2019-06-15T08:31:13.554Z,47.99
2019-06-15T08:33:43.190Z,47.85
2019-06-15T08:36:12.782Z,47.86
2019-06-15T08:38:42.425Z,47.93
2019-06-15T08:41:12.000Z,48.00
2019-06-15T08:43:41.601Z,48.05
2019-06-15T08:46:11.198Z,48.03
2019-06-15T08:48:40.829Z,48.18
2019-06-15T08:51:10.412Z,48.18
2019-06-15T08:53:39.966Z,48.29
2019-06-15T08:56:09.574Z,48.31
2019-06-15T08:58:39.046Z,48.51
2019-06-15T09:01:08.652Z,48.53
2019-06-15T09:03:38.230Z,48.53
2019-06-15T09:06:07.837Z,48.63
2019-06-15T09:08:37.890Z,48.70
2019-06-15T09:11:07.450Z,48.70
2019-06-15T09:13:37.134Z,48.69
2019-06-15T09:16:06.752Z,49.03
2019-06-15T09:18:36.326Z,49.35
2019-06-15T09:21:05.873Z,49.51
2019-06-15T09:23:35.489Z,49.49
2019-06-15T09:26:05.034Z,49.43
2019-06-15T09:28:34.594Z,49.57
2019-06-15T09:31:04.273Z,49.41
2019-06-15T09:33:33.904Z,49.35
2019-06-15T09:36:03.790Z,49.42
2019-06-15T09:38:33.365Z,49.53
2019-06-15T09:41:03.321Z,49.43
2019-06-15T09:43:32.892Z,49.26
2019-06-15T09:46:02.848Z,49.20
2019-06-15T09:48:32.427Z,49.08
2019-06-15T09:51:02.069Z,48.97
2019-06-15T09:53:31.767Z,48.87
2019-06-15T09:56:01.447Z,48.85
2019-06-15T09:58:31.132Z,48.79
2019-06-15T10:01:00.794Z,48.73
2019-06-15T10:03:30.479Z,48.72
2019-06-15T10:06:00.062Z,48.61
2019-06-15T10:08:29.614Z,48.61
2019-06-15T10:10:59.200Z,48.46
2019-06-15T10:13:31.467Z,48.50
2019-06-15T10:16:00.153Z,48.44
2019-06-15T10:18:29.821Z,48.44
2019-06-15T10:21:00.268Z,48.41
2019-06-15T10:23:29.843Z,48.39
2019-06-15T10:25:59.784Z,48.63
2019-06-15T10:28:29.361Z,48.83
2019-06-15T10:31:00.832Z,48.76
2019-06-15T10:33:30.579Z,48.97
2019-06-15T10:36:00.158Z,49.03
2019-06-15T10:38:29.826Z,48.93
2019-06-15T10:41:01.215Z,48.80
2019-06-15T10:43:30.933Z,48.75
2019-06-15T10:46:00.525Z,48.72
2019-06-15T10:48:30.496Z,48.64
2019-06-15T10:51:00.078Z,48.67
2019-06-15T10:53:29.627Z,48.65
2019-06-15T10:55:59.258Z,48.56
2019-06-15T10:58:28.826Z,48.49
2019-06-15T11:00:58.433Z,48.61
2019-06-15T11:03:28.046Z,48.64
2019-06-15T11:05:57.707Z,48.56
2019-06-15T11:08:27.262Z,48.58
2019-06-15T11:11:08.218Z,48.46
2019-06-15T11:13:38.225Z,48.47
2019-06-15T11:16:07.875Z,48.35
2019-06-15T11:18:37.561Z,48.29
2019-06-15T11:21:07.463Z,48.40
2019-06-15T11:23:37.479Z,48.27
2019-06-15T11:26:07.051Z,48.29
2019-06-15T11:28:36.615Z,48.26
2019-06-15T11:31:06.607Z,48.13
2019-06-15T11:33:36.178Z,47.99
2019-06-15T11:36:05.803Z,47.88
2019-06-15T11:38:35.381Z,47.94
2019-06-15T11:41:04.940Z,47.88
2019-06-15T11:43:34.582Z,47.89
2019-06-15T11:46:04.198Z,47.90
2019-06-15T11:48:33.814Z,47.88
2019-06-15T11:51:03.507Z,47.87
2019-06-15T11:53:33.388Z,47.79
2019-06-15T11:56:02.998Z,47.70
2019-06-15T11:58:32.556Z,47.58
2019-06-15T12:01:02.513Z,47.49
2019-06-15T12:03:32.093Z,47.46
2019-06-15T12:06:01.832Z,47.35
2019-06-15T12:08:31.462Z,47.13
2019-06-15T12:11:01.098Z,46.77
2019-06-15T12:13:31.061Z,46.89
2019-06-15T12:16:01.325Z,46.70
2019-06-15T12:18:30.936Z,46.77
2019-06-15T12:21:00.533Z,46.58
2019-06-15T12:23:30.483Z,46.33
2019-06-15T12:26:00.039Z,45.88
2019-06-15T12:28:29.745Z,45.87
2019-06-15T12:30:59.398Z,45.82
2019-06-15T12:33:29.076Z,45.93
2019-06-15T12:35:59.076Z,45.88
2019-06-15T12:38:28.713Z,46.03
2019-06-15T12:40:58.699Z,45.79
2019-06-15T12:43:28.369Z,45.74
2019-06-15T12:45:58.084Z,45.51
2019-06-15T12:48:27.740Z,45.15
2019-06-15T12:50:57.768Z,45.40
2019-06-15T12:53:27.323Z,45.18
2019-06-15T12:55:56.862Z,45.28
2019-06-15T12:58:26.409Z,45.46
2019-06-15T13:01:03.029Z,45.33
2019-06-15T13:03:27.442Z,45.49
2019-06-15T13:05:56.979Z,45.37
2019-06-15T13:08:26.573Z,45.31
2019-06-15T13:10:56.142Z,44.83
2019-06-15T13:13:25.730Z,45.23
2019-06-15T13:15:55.408Z,44.90
2019-06-15T13:18:25.018Z,44.91
2019-06-15T13:20:54.606Z,44.72
2019-06-15T13:23:24.170Z,44.89
2019-06-15T13:25:53.796Z,44.71
2019-06-15T13:28:23.388Z,44.78
2019-06-15T13:30:52.993Z,44.90
2019-06-15T13:33:22.629Z,44.79
2019-06-15T13:35:52.209Z,44.80
2019-06-15T13:38:21.864Z,44.34
2019-06-15T13:40:51.424Z,44.71
2019-06-15T13:43:20.999Z,44.74
2019-06-15T13:45:50.595Z,44.40
2019-06-15T13:48:20.222Z,44.67
2019-06-15T13:50:49.852Z,44.74
2019-06-15T13:53:19.498Z,44.47
2019-06-15T13:55:49.101Z,44.68
2019-06-15T13:58:19.286Z,44.67
2019-06-15T14:00:48.908Z,44.61
2019-06-15T14:03:18.671Z,44.58
2019-06-15T14:05:48.500Z,44.59
2019-06-15T14:08:18.138Z,44.27
2019-06-15T14:10:47.943Z,44.04
2019-06-15T14:13:17.894Z,44.26
2019-06-15T14:15:47.503Z,44.29
2019-06-15T14:18:17.128Z,44.23
2019-06-15T14:20:46.843Z,44.18
2019-06-15T14:23:16.733Z,44.11
2019-06-15T14:25:46.381Z,44.16
2019-06-15T14:28:15.959Z,44.06
2019-06-15T14:30:45.883Z,43.82
2019-06-15T14:33:15.509Z,44.13
2019-06-15T14:35:45.112Z,44.18
2019-06-15T14:38:14.704Z,44.18
2019-06-15T14:40:44.290Z,44.18
2019-06-15T14:43:13.842Z,44.25
2019-06-15T14:45:58.096Z,44.12
2019-06-15T14:48:14.707Z,43.96
2019-06-15T14:50:44.626Z,43.80
2019-06-15T14:53:14.215Z,43.85
2019-06-15T14:55:45.848Z,43.92
2019-06-15T14:58:17.142Z,43.69
2019-06-15T15:00:46.758Z,43.73
2019-06-15T15:03:17.124Z,43.49
2019-06-15T15:05:46.865Z,43.58
2019-06-15T15:08:16.458Z,43.68
2019-06-15T15:10:46.091Z,43.76
2019-06-15T15:13:16.005Z,43.72
2019-06-15T15:15:46.881Z,43.53
2019-06-15T15:18:16.637Z,43.75
2019-06-15T15:20:46.237Z,43.77
2019-06-15T15:23:15.797Z,43.77
2019-06-15T15:25:47.185Z,43.84
2019-06-15T15:28:16.816Z,43.89
2019-06-15T15:30:46.435Z,43.86
2019-06-15T15:33:15.994Z,43.78
2019-06-15T15:35:46.620Z,43.89
2019-06-15T15:38:16.451Z,43.97
2019-06-15T15:40:46.867Z,43.92
2019-06-15T15:43:16.615Z,43.83
2019-06-15T15:45:46.219Z,43.78
2019-06-15T15:48:18.517Z,43.83
2019-06-15T15:50:47.137Z,43.81
2019-06-15T15:53:16.726Z,43.87
2019-06-15T15:55:46.750Z,43.93
2019-06-15T15:58:16.792Z,44.00
2019-06-15T16:00:47.025Z,43.96
2019-06-15T16:03:16.825Z,44.08
2019-06-15T16:05:47.268Z,44.04
2019-06-15T16:08:16.918Z,44.04
2019-06-15T16:10:46.941Z,44.03
2019-06-15T16:13:16.766Z,44.04
2019-06-15T16:15:46.509Z,44.04
2019-06-15T16:18:17.413Z,44.04
2019-06-15T16:20:47.282Z,44.09
2019-06-15T16:23:16.885Z,44.09
2019-06-15T16:25:46.445Z,43.93
2019-06-15T16:28:16.001Z,43.98
2019-06-15T16:31:04.781Z,44.02
2019-06-15T16:33:16.870Z,43.94
2019-06-15T16:35:46.785Z,43.75
2019-06-15T16:38:19.351Z,43.86
2019-06-15T16:40:47.956Z,43.92
2019-06-15T16:43:17.725Z,43.90
2019-06-15T16:45:47.648Z,43.97
2019-06-15T16:48:17.224Z,43.87
2019-06-15T16:50:47.214Z,43.81
2019-06-15T16:53:16.983Z,43.56
2019-06-15T16:55:46.959Z,43.24
2019-06-15T16:58:16.640Z,43.11
2019-06-15T17:00:47.796Z,43.10
2019-06-15T17:03:24.879Z,43.08
2019-06-15T17:05:48.830Z,42.90
2019-06-15T17:08:18.461Z,43.12
2019-06-15T17:10:48.038Z,43.25
2019-06-15T17:13:17.660Z,43.28
2019-06-15T17:15:47.227Z,43.28
2019-06-15T17:18:17.783Z,43.21
2019-06-15T17:20:51.455Z,43.25
2019-06-15T17:23:21.093Z,43.22
2019-06-15T17:25:50.628Z,43.29
2019-06-15T17:28:20.536Z,43.34
2019-06-15T17:30:50.127Z,43.41
2019-06-15T17:33:33.421Z,43.42
2019-06-15T17:35:58.751Z,43.21
2019-06-15T17:38:22.696Z,43.34
2019-06-15T17:40:52.544Z,43.24
2019-06-15T17:43:22.568Z,43.22
2019-06-15T17:45:52.479Z,43.25
2019-06-15T17:48:22.104Z,43.20
2019-06-15T17:50:51.716Z,43.18
2019-06-15T17:53:21.386Z,43.07
2019-06-15T17:55:50.996Z,43.06
2019-06-15T17:58:20.614Z,42.89
2019-06-15T18:00:50.236Z,42.99
2019-06-15T18:03:19.832Z,42.90
2019-06-15T18:05:49.392Z,43.03
2019-06-15T18:08:19.130Z,43.11
2019-06-15T18:10:48.880Z,43.10
2019-06-15T18:13:18.471Z,43.15
2019-06-15T18:15:48.186Z,43.15
2019-06-15T18:18:17.845Z,43.19
2019-06-15T18:20:47.420Z,43.09
2019-06-15T18:23:17.740Z,43.14
2019-06-15T18:25:47.461Z,43.15
2019-06-15T18:28:17.857Z,43.09
2019-06-15T18:30:47.617Z,43.08
2019-06-15T18:33:17.207Z,43.04
2019-06-15T18:35:47.407Z,43.00
2019-06-15T18:38:17.422Z,42.99
2019-06-15T18:40:46.969Z,42.94
2019-06-15T18:43:16.956Z,42.94
2019-06-15T18:45:47.421Z,42.93
2019-06-15T18:48:17.245Z,42.94
2019-06-15T18:50:47.280Z,42.94
2019-06-15T18:53:17.188Z,42.90
2019-06-15T18:55:47.527Z,42.87
2019-06-15T18:58:17.722Z,42.83
2019-06-15T19:00:47.483Z,42.82
2019-06-15T19:03:17.201Z,42.80
2019-06-15T19:05:47.698Z,42.76
2019-06-15T19:08:17.639Z,42.72
2019-06-15T19:10:47.351Z,42.70
2019-06-15T19:13:16.929Z,42.65
2019-06-15T19:15:46.946Z,42.65
2019-06-15T19:18:17.879Z,42.58
2019-06-15T19:20:47.779Z,42.56
2019-06-15T19:23:17.345Z,42.52
2019-06-15T19:25:47.339Z,42.48
2019-06-15T19:28:17.083Z,42.37
2019-06-15T19:30:48.419Z,42.42
2019-06-15T19:33:18.057Z,42.49
2019-06-15T19:35:47.610Z,42.46
2019-06-15T19:38:17.630Z,42.41
2019-06-15T19:40:47.444Z,42.33
2019-06-15T19:43:17.025Z,42.27
2019-06-15T19:45:46.625Z,42.25
2019-06-15T19:48:17.105Z,42.16
2019-06-15T19:50:47.118Z,42.10
2019-06-15T19:53:17.422Z,42.13
2019-06-15T19:55:47.405Z,42.09
2019-06-15T19:58:17.425Z,42.10
2019-06-15T20:00:47.268Z,42.13
2019-06-15T20:03:17.102Z,42.11
2019-06-15T20:05:46.728Z,42.01
2019-06-15T20:08:17.707Z,41.93
2019-06-15T20:10:47.655Z,41.91
2019-06-15T20:13:17.630Z,42.01
2019-06-15T20:15:47.813Z,41.98
2019-06-15T20:18:17.892Z,41.93
2019-06-15T20:20:47.597Z,41.91
2019-06-15T20:23:17.177Z,41.86
2019-06-15T20:25:47.335Z,41.77
2019-06-15T20:28:17.420Z,41.67
2019-06-15T20:30:47.519Z,41.66
2019-06-15T20:33:17.145Z,41.54
2019-06-15T20:35:47.273Z,41.50
2019-06-15T20:38:17.006Z,41.52
2019-06-15T20:40:47.609Z,41.50
2019-06-15T20:43:17.411Z,41.50
2019-06-15T20:45:47.637Z,41.46
2019-06-15T20:48:17.200Z,41.45
2019-06-15T20:50:47.301Z,41.50
2019-06-15T20:53:17.229Z,41.40
2019-06-15T20:55:47.159Z,41.46
2019-06-15T20:58:17.470Z,41.47
2019-06-15T21:00:47.808Z,41.51
2019-06-15T21:03:17.521Z,41.54
2019-06-15T21:05:47.797Z,41.49
2019-06-15T21:08:17.476Z,41.44
2019-06-15T21:10:47.031Z,41.49
2019-06-15T21:13:17.079Z,41.44
2019-06-15T21:15:47.588Z,41.23
2019-06-15T21:18:17.481Z,41.07
2019-06-15T21:20:47.353Z,41.11
2019-06-15T21:23:17.209Z,41.25
2019-06-15T21:25:47.059Z,41.29
2019-06-15T21:28:17.039Z,41.27
2019-06-15T21:30:47.357Z,41.29
2019-06-15T21:33:16.913Z,41.33
2019-06-15T21:35:52.276Z,41.35
2019-06-15T21:38:17.729Z,41.35
2019-06-15T21:40:47.790Z,41.35
2019-06-15T21:43:17.697Z,41.38
2019-06-15T21:45:47.240Z,41.37
2019-06-15T21:48:16.824Z,41.37
2019-06-15T21:50:47.201Z,41.38
2019-06-15T21:53:17.054Z,41.40
2019-06-15T21:55:47.301Z,41.44
2019-06-15T21:58:17.269Z,41.49
2019-06-15T22:01:01.891Z,41.54
2019-06-15T22:03:31.388Z,41.57
2019-06-15T22:06:03.151Z,41.69
2019-06-15T22:08:32.204Z,41.75
2019-06-15T22:11:01.905Z,41.76
2019-06-15T22:13:31.451Z,41.84
2019-06-15T22:16:01.341Z,41.81
2019-06-15T22:18:30.856Z,41.81
2019-06-15T22:21:00.455Z,41.86
2019-06-15T22:23:30.372Z,41.90
2019-06-15T22:25:59.996Z,41.98
2019-06-15T22:28:29.592Z,42.05
2019-06-15T22:30:59.225Z,42.07
2019-06-15T22:33:28.761Z,42.10
2019-06-15T22:35:58.414Z,42.20
2019-06-15T22:38:28.012Z,42.27
2019-06-15T22:40:57.634Z,42.33
2019-06-15T22:43:27.489Z,42.36
2019-06-15T22:45:57.542Z,42.40
2019-06-15T22:48:27.318Z,42.45
2019-06-15T22:50:56.892Z,42.45
2019-06-15T22:53:27.142Z,42.49
2019-06-15T22:55:57.157Z,42.46
2019-06-15T22:58:27.195Z,42.47
2019-06-15T23:00:56.992Z,42.50
2019-06-15T23:03:26.558Z,42.50
2019-06-15T23:05:57.208Z,42.53
2019-06-15T23:08:26.923Z,42.56
2019-06-15T23:10:57.135Z,42.60
2019-06-15T23:13:26.931Z,42.63
2019-06-15T23:15:56.597Z,42.65
2019-06-15T23:18:26.152Z,42.69
2019-06-15T23:20:56.931Z,42.71
2019-06-15T23:23:26.977Z,42.78
2019-06-15T23:25:56.739Z,42.81
2019-06-15T23:28:27.061Z,42.87
2019-06-15T23:30:56.792Z,42.90
2019-06-15T23:33:26.717Z,42.89
2019-06-15T23:36:01.560Z,42.91
2019-06-15T23:38:31.193Z,42.96
2019-06-15T23:41:00.773Z,43.02
2019-06-15T23:43:30.372Z,43.03
2019-06-15T23:45:59.926Z,43.06
2019-06-15T23:48:29.501Z,43.09
2019-06-15T23:50:59.058Z,43.17
2019-06-15T23:53:28.668Z,43.19
2019-06-15T23:55:58.309Z,43.20
2019-06-15T23:58:27.907Z,43.24
